sensor_id;sensor_type;location;lat;lon;timestamp;temperature;humidity
22112;DHT22;11222;50.872;4.312;2023-07-16T00:00:47;18.80;99.90
22112;DHT22;11222;50.872;4.312;2023-07-16T00:03:15;18.90;99.90
22112;DHT22;11222;50.872;4.312;2023-07-16T00:05:40;18.90;99.90
22112;DHT22;11222;50.872;4.312;2023-07-16T00:08:06;18.90;99.90
22112;DHT22;11222;50.872;4.312;2023-07-16T00:10:35;18.90;99.90
22112;DHT22;11222;50.872;4.312;2023-07-16T00:13:02;18.80;99.90
22112;DHT22;11222;50.872;4.312;2023-07-16T00:15:29;18.80;99.90
22112;DHT22;11222;50.872;4.312;2023-07-16T00:17:54;18.70;99.90
22112;DHT22;11222;50.872;4.312;2023-07-16T00:20:20;18.60;99.90
22112;DHT22;11222;50.872;4.312;2023-07-16T00:22:46;18.60;99.90
22112;DHT22;11222;50.872;4.312;2023-07-16T00:25:12;18.50;99.90
22112;DHT22;11222;50.872;4.312;2023-07-16T00:27:37;18.50;99.90
22112;DHT22;11222;50.872;4.312;2023-07-16T00:30:03;18.40;99.90
22112;DHT22;11222;50.872;4.312;2023-07-16T00:32:29;18.40;99.90
22112;DHT22;11222;50.872;4.312;2023-07-16T00:34:55;18.40;99.90
22112;DHT22;11222;50.872;4.312;2023-07-16T00:37:21;18.40;99.90
22112;DHT22;11222;50.872;4.312;2023-07-16T00:39:46;18.40;99.90
22112;DHT22;11222;50.872;4.312;2023-07-16T00:42:12;18.30;99.90
22112;DHT22;11222;50.872;4.312;2023-07-16T00:44:38;18.30;99.90
22112;DHT22;11222;50.872;4.312;2023-07-16T00:47:03;18.30;99.90
22112;DHT22;11222;50.872;4.312;2023-07-16T00:49:29;18.30;99.90
22112;DHT22;11222;50.872;4.312;2023-07-16T00:51:55;18.20;99.90
22112;DHT22;11222;50.872;4.312;2023-07-16T00:54:21;18.20;99.90
22112;DHT22;11222;50.872;4.312;2023-07-16T00:56:48;18.20;99.90
22112;DHT22;11222;50.872;4.312;2023-07-16T00:59:13;18.10;99.90
22112;DHT22;11222;50.872;4.312;2023-07-16T01:01:39;18.10;99.90
22112;DHT22;11222;50.872;4.312;2023-07-16T01:04:05;18.10;99.90
22112;DHT22;11222;50.872;4.312;2023-07-16T01:09:06;18.00;99.90
22112;DHT22;11222;50.872;4.312;2023-07-16T01:11:33;18.00;99.90
22112;DHT22;11222;50.872;4.312;2023-07-16T01:14:01;17.90;99.90
22112;DHT22;11222;50.872;4.312;2023-07-16T01:16:27;17.80;99.90
22112;DHT22;11222;50.872;4.312;2023-07-16T01:18:53;17.70;99.90
22112;DHT22;11222;50.872;4.312;2023-07-16T01:21:21;17.60;99.90
22112;DHT22;11222;50.872;4.312;2023-07-16T01:31:42;17.50;99.90
22112;DHT22;11222;50.872;4.312;2023-07-16T01:34:09;17.50;99.90
22112;DHT22;11222;50.872;4.312;2023-07-16T01:36:36;17.50;99.90
22112;DHT22;11222;50.872;4.312;2023-07-16T01:39:02;17.50;99.90
22112;DHT22;11222;50.872;4.312;2023-07-16T01:41:28;17.50;99.90
22112;DHT22;11222;50.872;4.312;2023-07-16T01:43:54;17.50;99.90
22112;DHT22;11222;50.872;4.312;2023-07-16T01:46:19;17.50;99.90
22112;DHT22;11222;50.872;4.312;2023-07-16T01:48:45;17.50;99.90
22112;DHT22;11222;50.872;4.312;2023-07-16T01:51:11;17.50;99.90
22112;DHT22;11222;50.872;4.312;2023-07-16T01:53:42;17.50;99.90
22112;DHT22;11222;50.872;4.312;2023-07-16T01:56:08;17.40;99.90
22112;DHT22;11222;50.872;4.312;2023-07-16T01:58:33;17.40;99.90
22112;DHT22;11222;50.872;4.312;2023-07-16T02:00:59;17.40;99.90
22112;DHT22;11222;50.872;4.312;2023-07-16T02:03:25;17.30;99.90
22112;DHT22;11222;50.872;4.312;2023-07-16T02:05:50;17.30;99.90
22112;DHT22;11222;50.872;4.312;2023-07-16T02:08:17;17.20;99.90
22112;DHT22;11222;50.872;4.312;2023-07-16T02:10:44;17.20;99.90
22112;DHT22;11222;50.872;4.312;2023-07-16T02:13:09;17.10;99.90
22112;DHT22;11222;50.872;4.312;2023-07-16T02:15:35;17.10;99.90
22112;DHT22;11222;50.872;4.312;2023-07-16T02:18:00;17.00;99.90
22112;DHT22;11222;50.872;4.312;2023-07-16T02:20:26;17.10;99.90
22112;DHT22;11222;50.872;4.312;2023-07-16T02:22:52;17.00;99.90
22112;DHT22;11222;50.872;4.312;2023-07-16T02:25:18;16.90;99.90
22112;DHT22;11222;50.872;4.312;2023-07-16T02:27:43;16.90;99.90
22112;DHT22;11222;50.872;4.312;2023-07-16T02:30:09;16.90;99.90
22112;DHT22;11222;50.872;4.312;2023-07-16T02:32:35;16.90;99.90
22112;DHT22;11222;50.872;4.312;2023-07-16T02:35:01;16.90;99.90
22112;DHT22;11222;50.872;4.312;2023-07-16T02:37:27;16.90;99.90
22112;DHT22;11222;50.872;4.312;2023-07-16T02:39:52;16.90;99.90
22112;DHT22;11222;50.872;4.312;2023-07-16T02:42:18;16.90;99.90
22112;DHT22;11222;50.872;4.312;2023-07-16T02:44:44;16.80;99.90
22112;DHT22;11222;50.872;4.312;2023-07-16T02:47:13;16.90;99.90
22112;DHT22;11222;50.872;4.312;2023-07-16T02:49:39;16.80;99.90
22112;DHT22;11222;50.872;4.312;2023-07-16T02:52:05;16.90;99.90
22112;DHT22;11222;50.872;4.312;2023-07-16T02:54:31;16.90;99.90
22112;DHT22;11222;50.872;4.312;2023-07-16T02:56:57;17.00;99.90
22112;DHT22;11222;50.872;4.312;2023-07-16T02:59:23;16.90;99.90
22112;DHT22;11222;50.872;4.312;2023-07-16T03:01:48;16.90;99.90
22112;DHT22;11222;50.872;4.312;2023-07-16T03:04:14;17.00;99.90
22112;DHT22;11222;50.872;4.312;2023-07-16T03:06:39;17.00;99.90
22112;DHT22;11222;50.872;4.312;2023-07-16T03:09:05;16.90;99.90
22112;DHT22;11222;50.872;4.312;2023-07-16T03:11:31;16.90;99.90
22112;DHT22;11222;50.872;4.312;2023-07-16T03:13:56;16.80;99.90
22112;DHT22;11222;50.872;4.312;2023-07-16T03:16:22;16.80;99.90
22112;DHT22;11222;50.872;4.312;2023-07-16T03:18:47;16.70;99.90
22112;DHT22;11222;50.872;4.312;2023-07-16T03:21:13;16.70;99.90
22112;DHT22;11222;50.872;4.312;2023-07-16T03:23:39;16.70;99.90
22112;DHT22;11222;50.872;4.312;2023-07-16T03:26:05;16.70;99.90
22112;DHT22;11222;50.872;4.312;2023-07-16T03:28:30;16.70;99.90
22112;DHT22;11222;50.872;4.312;2023-07-16T03:30:56;16.70;99.90
22112;DHT22;11222;50.872;4.312;2023-07-16T03:33:21;16.70;99.90
22112;DHT22;11222;50.872;4.312;2023-07-16T03:35:48;16.70;99.90
22112;DHT22;11222;50.872;4.312;2023-07-16T03:38:15;16.60;99.90
22112;DHT22;11222;50.872;4.312;2023-07-16T03:40:46;16.70;99.90
22112;DHT22;11222;50.872;4.312;2023-07-16T03:43:12;16.60;99.90
22112;DHT22;11222;50.872;4.312;2023-07-16T03:45:37;16.60;99.90
22112;DHT22;11222;50.872;4.312;2023-07-16T03:48:03;16.60;99.90
22112;DHT22;11222;50.872;4.312;2023-07-16T03:50:29;16.60;99.90
22112;DHT22;11222;50.872;4.312;2023-07-16T03:52:55;16.60;99.90
22112;DHT22;11222;50.872;4.312;2023-07-16T03:55:20;16.50;99.90
22112;DHT22;11222;50.872;4.312;2023-07-16T03:57:46;16.50;99.90
22112;DHT22;11222;50.872;4.312;2023-07-16T04:00:12;16.50;99.90
22112;DHT22;11222;50.872;4.312;2023-07-16T04:02:38;16.50;99.90
22112;DHT22;11222;50.872;4.312;2023-07-16T04:05:04;16.50;99.90
22112;DHT22;11222;50.872;4.312;2023-07-16T04:07:30;16.50;99.90
22112;DHT22;11222;50.872;4.312;2023-07-16T04:09:55;16.50;99.90
22112;DHT22;11222;50.872;4.312;2023-07-16T04:12:21;16.50;99.90
22112;DHT22;11222;50.872;4.312;2023-07-16T04:14:47;16.50;99.90
22112;DHT22;11222;50.872;4.312;2023-07-16T04:17:13;16.50;99.90
22112;DHT22;11222;50.872;4.312;2023-07-16T04:19:39;16.60;99.90
22112;DHT22;11222;50.872;4.312;2023-07-16T04:22:05;16.50;99.90
22112;DHT22;11222;50.872;4.312;2023-07-16T04:24:30;16.50;99.90
22112;DHT22;11222;50.872;4.312;2023-07-16T04:26:58;16.60;99.90
22112;DHT22;11222;50.872;4.312;2023-07-16T04:29:23;16.70;99.90
22112;DHT22;11222;50.872;4.312;2023-07-16T04:31:49;16.80;99.90
22112;DHT22;11222;50.872;4.312;2023-07-16T04:34:15;16.90;99.90
22112;DHT22;11222;50.872;4.312;2023-07-16T04:36:42;17.20;99.90
22112;DHT22;11222;50.872;4.312;2023-07-16T04:39:07;17.30;99.90
22112;DHT22;11222;50.872;4.312;2023-07-16T04:41:33;17.40;99.90
22112;DHT22;11222;50.872;4.312;2023-07-16T04:43:59;17.50;99.90
22112;DHT22;11222;50.872;4.312;2023-07-16T04:46:25;17.80;99.90
22112;DHT22;11222;50.872;4.312;2023-07-16T04:48:50;17.90;99.90
22112;DHT22;11222;50.872;4.312;2023-07-16T04:51:16;18.00;99.90
22112;DHT22;11222;50.872;4.312;2023-07-16T04:53:42;18.10;99.90
22112;DHT22;11222;50.872;4.312;2023-07-16T04:56:15;18.10;99.90
22112;DHT22;11222;50.872;4.312;2023-07-16T04:58:41;18.10;99.90
22112;DHT22;11222;50.872;4.312;2023-07-16T05:01:08;17.70;99.90
22112;DHT22;11222;50.872;4.312;2023-07-16T05:03:34;17.40;99.90
22112;DHT22;11222;50.872;4.312;2023-07-16T05:05:59;17.20;99.90
22112;DHT22;11222;50.872;4.312;2023-07-16T05:08:25;17.00;99.90
22112;DHT22;11222;50.872;4.312;2023-07-16T05:10:51;16.90;99.90
22112;DHT22;11222;50.872;4.312;2023-07-16T05:13:17;16.90;99.90
22112;DHT22;11222;50.872;4.312;2023-07-16T05:15:45;16.80;99.90
22112;DHT22;11222;50.872;4.312;2023-07-16T05:18:11;16.90;99.90
22112;DHT22;11222;50.872;4.312;2023-07-16T05:20:37;16.90;99.90
22112;DHT22;11222;50.872;4.312;2023-07-16T05:23:03;16.90;99.90
22112;DHT22;11222;50.872;4.312;2023-07-16T05:25:29;16.90;99.90
22112;DHT22;11222;50.872;4.312;2023-07-16T05:27:55;17.00;99.90
22112;DHT22;11222;50.872;4.312;2023-07-16T05:30:21;17.00;99.90
22112;DHT22;11222;50.872;4.312;2023-07-16T05:32:46;17.00;99.90
22112;DHT22;11222;50.872;4.312;2023-07-16T05:35:12;17.10;99.90
22112;DHT22;11222;50.872;4.312;2023-07-16T05:37:38;17.10;99.90
22112;DHT22;11222;50.872;4.312;2023-07-16T05:40:04;17.10;99.90
22112;DHT22;11222;50.872;4.312;2023-07-16T05:42:30;17.20;99.90
22112;DHT22;11222;50.872;4.312;2023-07-16T05:44:55;17.20;99.90
22112;DHT22;11222;50.872;4.312;2023-07-16T05:47:21;17.10;99.90
22112;DHT22;11222;50.872;4.312;2023-07-16T05:49:47;17.20;99.90
22112;DHT22;11222;50.872;4.312;2023-07-16T05:52:13;17.40;99.90
22112;DHT22;11222;50.872;4.312;2023-07-16T05:54:38;17.40;99.90
22112;DHT22;11222;50.872;4.312;2023-07-16T05:57:04;17.30;99.90
22112;DHT22;11222;50.872;4.312;2023-07-16T05:59:30;17.30;99.90
22112;DHT22;11222;50.872;4.312;2023-07-16T06:01:59;17.30;99.90
22112;DHT22;11222;50.872;4.312;2023-07-16T06:04:25;17.40;99.90
22112;DHT22;11222;50.872;4.312;2023-07-16T06:06:51;17.40;99.90
22112;DHT22;11222;50.872;4.312;2023-07-16T06:09:16;17.40;99.90
22112;DHT22;11222;50.872;4.312;2023-07-16T06:11:42;17.50;99.90
22112;DHT22;11222;50.872;4.312;2023-07-16T06:14:08;17.50;99.90
22112;DHT22;11222;50.872;4.312;2023-07-16T06:16:34;17.50;99.90
22112;DHT22;11222;50.872;4.312;2023-07-16T06:18:59;17.50;99.90
22112;DHT22;11222;50.872;4.312;2023-07-16T06:21:25;17.70;99.90
22112;DHT22;11222;50.872;4.312;2023-07-16T06:23:50;17.70;99.90
22112;DHT22;11222;50.872;4.312;2023-07-16T06:26:16;17.80;99.90
22112;DHT22;11222;50.872;4.312;2023-07-16T06:28:42;17.80;99.90
22112;DHT22;11222;50.872;4.312;2023-07-16T06:31:07;17.90;99.90
22112;DHT22;11222;50.872;4.312;2023-07-16T06:33:33;17.80;99.90
22112;DHT22;11222;50.872;4.312;2023-07-16T06:35:59;17.80;99.90
22112;DHT22;11222;50.872;4.312;2023-07-16T06:38:24;17.90;99.90
22112;DHT22;11222;50.872;4.312;2023-07-16T06:40:51;17.90;99.90
22112;DHT22;11222;50.872;4.312;2023-07-16T06:43:17;17.90;99.90
22112;DHT22;11222;50.872;4.312;2023-07-16T06:45:43;18.00;99.90
22112;DHT22;11222;50.872;4.312;2023-07-16T06:48:09;18.00;99.90
22112;DHT22;11222;50.872;4.312;2023-07-16T06:50:35;18.10;99.90
22112;DHT22;11222;50.872;4.312;2023-07-16T06:53:01;18.10;99.90
22112;DHT22;11222;50.872;4.312;2023-07-16T06:55:26;18.10;99.90
22112;DHT22;11222;50.872;4.312;2023-07-16T06:57:52;18.30;99.90
22112;DHT22;11222;50.872;4.312;2023-07-16T07:00:18;18.30;99.90
22112;DHT22;11222;50.872;4.312;2023-07-16T07:02:44;18.40;99.90
22112;DHT22;11222;50.872;4.312;2023-07-16T07:05:10;18.30;99.90
22112;DHT22;11222;50.872;4.312;2023-07-16T07:07:35;18.40;99.90
22112;DHT22;11222;50.872;4.312;2023-07-16T07:10:01;18.40;99.90
22112;DHT22;11222;50.872;4.312;2023-07-16T07:12:27;18.60;99.90
22112;DHT22;11222;50.872;4.312;2023-07-16T07:14:52;18.60;99.90
22112;DHT22;11222;50.872;4.312;2023-07-16T07:17:18;18.70;99.90
22112;DHT22;11222;50.872;4.312;2023-07-16T07:19:44;18.80;99.90
22112;DHT22;11222;50.872;4.312;2023-07-16T07:22:10;18.80;99.90
22112;DHT22;11222;50.872;4.312;2023-07-16T07:24:36;18.90;99.90
22112;DHT22;11222;50.872;4.312;2023-07-16T07:27:01;19.00;99.90
22112;DHT22;11222;50.872;4.312;2023-07-16T07:29:27;19.00;99.90
22112;DHT22;11222;50.872;4.312;2023-07-16T07:31:53;19.10;99.90
22112;DHT22;11222;50.872;4.312;2023-07-16T07:34:19;19.30;99.90
22112;DHT22;11222;50.872;4.312;2023-07-16T07:36:44;20.00;99.90
22112;DHT22;11222;50.872;4.312;2023-07-16T07:39:10;20.50;99.90
22112;DHT22;11222;50.872;4.312;2023-07-16T07:41:36;21.10;99.90
22112;DHT22;11222;50.872;4.312;2023-07-16T07:44:01;21.10;99.90
22112;DHT22;11222;50.872;4.312;2023-07-16T07:46:27;21.70;99.90
22112;DHT22;11222;50.872;4.312;2023-07-16T07:48:53;22.10;99.90
22112;DHT22;11222;50.872;4.312;2023-07-16T07:51:19;23.40;99.90
22112;DHT22;11222;50.872;4.312;2023-07-16T07:53:45;23.80;99.90
22112;DHT22;11222;50.872;4.312;2023-07-16T07:56:11;23.70;99.90
22112;DHT22;11222;50.872;4.312;2023-07-16T07:58:37;23.60;99.90
22112;DHT22;11222;50.872;4.312;2023-07-16T08:01:06;23.00;99.90
22112;DHT22;11222;50.872;4.312;2023-07-16T08:03:33;22.80;99.90
22112;DHT22;11222;50.872;4.312;2023-07-16T08:05:58;22.80;99.90
22112;DHT22;11222;50.872;4.312;2023-07-16T08:08:24;23.40;99.90
22112;DHT22;11222;50.872;4.312;2023-07-16T08:10:50;23.10;99.90
22112;DHT22;11222;50.872;4.312;2023-07-16T08:13:15;23.40;99.90
22112;DHT22;11222;50.872;4.312;2023-07-16T08:15:41;24.20;99.90
22112;DHT22;11222;50.872;4.312;2023-07-16T08:18:07;24.40;99.90
22112;DHT22;11222;50.872;4.312;2023-07-16T08:20:32;24.10;99.90
22112;DHT22;11222;50.872;4.312;2023-07-16T08:22:58;24.10;99.90
22112;DHT22;11222;50.872;4.312;2023-07-16T08:25:24;24.50;99.90
22112;DHT22;11222;50.872;4.312;2023-07-16T08:27:49;23.90;99.90
22112;DHT22;11222;50.872;4.312;2023-07-16T08:30:15;24.00;99.90
22112;DHT22;11222;50.872;4.312;2023-07-16T08:32:41;23.80;99.90
22112;DHT22;11222;50.872;4.312;2023-07-16T08:35:06;24.10;99.90
22112;DHT22;11222;50.872;4.312;2023-07-16T08:37:32;23.90;99.90
22112;DHT22;11222;50.872;4.312;2023-07-16T08:39:58;24.20;99.90
22112;DHT22;11222;50.872;4.312;2023-07-16T08:42:24;24.50;99.90
22112;DHT22;11222;50.872;4.312;2023-07-16T08:44:50;23.90;99.90
22112;DHT22;11222;50.872;4.312;2023-07-16T08:47:16;23.80;99.90
22112;DHT22;11222;50.872;4.312;2023-07-16T08:50:01;23.90;99.90
22112;DHT22;11222;50.872;4.312;2023-07-16T08:52:27;23.80;99.90
22112;DHT22;11222;50.872;4.312;2023-07-16T08:54:54;23.30;99.90
22112;DHT22;11222;50.872;4.312;2023-07-16T08:57:20;22.80;99.90
22112;DHT22;11222;50.872;4.312;2023-07-16T08:59:51;22.50;99.90
22112;DHT22;11222;50.872;4.312;2023-07-16T09:02:20;21.90;99.90
22112;DHT22;11222;50.872;4.312;2023-07-16T09:04:47;21.60;99.90
22112;DHT22;11222;50.872;4.312;2023-07-16T09:07:13;21.60;99.90
22112;DHT22;11222;50.872;4.312;2023-07-16T09:09:38;21.80;99.90
22112;DHT22;11222;50.872;4.312;2023-07-16T09:12:04;22.50;99.90
22112;DHT22;11222;50.872;4.312;2023-07-16T09:14:30;22.90;99.90
22112;DHT22;11222;50.872;4.312;2023-07-16T09:16:56;22.90;99.90
22112;DHT22;11222;50.872;4.312;2023-07-16T09:19:21;22.50;99.90
22112;DHT22;11222;50.872;4.312;2023-07-16T09:21:48;22.00;99.90
22112;DHT22;11222;50.872;4.312;2023-07-16T09:24:15;21.80;99.90
22112;DHT22;11222;50.872;4.312;2023-07-16T09:27:01;21.80;99.90
22112;DHT22;11222;50.872;4.312;2023-07-16T09:29:27;21.80;99.90
22112;DHT22;11222;50.872;4.312;2023-07-16T09:31:58;21.60;99.90
22112;DHT22;11222;50.872;4.312;2023-07-16T09:34:27;21.40;99.90
22112;DHT22;11222;50.872;4.312;2023-07-16T09:36:52;21.30;99.90
22112;DHT22;11222;50.872;4.312;2023-07-16T09:39:19;21.30;99.90
22112;DHT22;11222;50.872;4.312;2023-07-16T09:41:48;21.10;99.90
22112;DHT22;11222;50.872;4.312;2023-07-16T09:44:15;21.00;99.90
22112;DHT22;11222;50.872;4.312;2023-07-16T09:46:42;20.80;99.90
22112;DHT22;11222;50.872;4.312;2023-07-16T09:49:08;20.80;99.90
22112;DHT22;11222;50.872;4.312;2023-07-16T09:51:35;20.90;99.90
22112;DHT22;11222;50.872;4.312;2023-07-16T09:54:02;20.80;99.90
22112;DHT22;11222;50.872;4.312;2023-07-16T09:56:54;20.70;99.90
22112;DHT22;11222;50.872;4.312;2023-07-16T09:59:20;20.70;99.90
22112;DHT22;11222;50.872;4.312;2023-07-16T10:01:47;20.90;99.90
22112;DHT22;11222;50.872;4.312;2023-07-16T10:04:18;20.80;99.90
22112;DHT22;11222;50.872;4.312;2023-07-16T10:09:39;20.60;99.90
22112;DHT22;11222;50.872;4.312;2023-07-16T10:12:19;20.60;99.90
22112;DHT22;11222;50.872;4.312;2023-07-16T10:14:50;20.60;99.90
22112;DHT22;11222;50.872;4.312;2023-07-16T10:17:26;20.70;99.90
22112;DHT22;11222;50.872;4.312;2023-07-16T10:22:47;20.50;99.90
22112;DHT22;11222;50.872;4.312;2023-07-16T10:27:50;20.30;99.90
22112;DHT22;11222;50.872;4.312;2023-07-16T10:30:17;20.50;99.90
22112;DHT22;11222;50.872;4.312;2023-07-16T10:32:43;20.70;99.90
22112;DHT22;11222;50.872;4.312;2023-07-16T10:35:09;21.10;99.90
22112;DHT22;11222;50.872;4.312;2023-07-16T10:37:36;21.60;99.90
22112;DHT22;11222;50.872;4.312;2023-07-16T10:40:03;21.80;99.90
22112;DHT22;11222;50.872;4.312;2023-07-16T10:42:29;21.70;99.90
22112;DHT22;11222;50.872;4.312;2023-07-16T10:44:58;21.60;99.90
22112;DHT22;11222;50.872;4.312;2023-07-16T10:47:32;21.90;99.90
22112;DHT22;11222;50.872;4.312;2023-07-16T10:49:59;21.80;99.90
22112;DHT22;11222;50.872;4.312;2023-07-16T10:52:26;21.80;99.90
22112;DHT22;11222;50.872;4.312;2023-07-16T10:54:51;21.20;99.90
22112;DHT22;11222;50.872;4.312;2023-07-16T10:57:21;21.00;99.90
22112;DHT22;11222;50.872;4.312;2023-07-16T10:59:46;21.00;99.90
22112;DHT22;11222;50.872;4.312;2023-07-16T11:02:15;21.00;99.90
22112;DHT22;11222;50.872;4.312;2023-07-16T11:04:43;21.00;99.90
22112;DHT22;11222;50.872;4.312;2023-07-16T11:07:11;21.00;99.90
22112;DHT22;11222;50.872;4.312;2023-07-16T11:09:42;20.90;99.90
22112;DHT22;11222;50.872;4.312;2023-07-16T11:12:12;21.30;99.90
22112;DHT22;11222;50.872;4.312;2023-07-16T11:14:38;21.20;99.90
22112;DHT22;11222;50.872;4.312;2023-07-16T11:17:08;21.00;99.90
22112;DHT22;11222;50.872;4.312;2023-07-16T11:19:35;21.00;99.90
22112;DHT22;11222;50.872;4.312;2023-07-16T11:22:07;21.10;99.90
22112;DHT22;11222;50.872;4.312;2023-07-16T11:27:27;21.90;99.90
22112;DHT22;11222;50.872;4.312;2023-07-16T11:29:57;22.20;99.90
22112;DHT22;11222;50.872;4.312;2023-07-16T11:32:38;22.60;99.90
22112;DHT22;11222;50.872;4.312;2023-07-16T11:35:07;22.90;99.90
22112;DHT22;11222;50.872;4.312;2023-07-16T11:37:35;24.50;99.90
22112;DHT22;11222;50.872;4.312;2023-07-16T11:40:07;25.60;99.90
22112;DHT22;11222;50.872;4.312;2023-07-16T11:42:35;26.30;99.90
22112;DHT22;11222;50.872;4.312;2023-07-16T11:45:01;25.40;99.90
22112;DHT22;11222;50.872;4.312;2023-07-16T11:47:27;25.20;99.90
22112;DHT22;11222;50.872;4.312;2023-07-16T11:49:53;25.00;99.90
22112;DHT22;11222;50.872;4.312;2023-07-16T11:52:27;25.40;99.90
22112;DHT22;11222;50.872;4.312;2023-07-16T11:54:53;26.40;99.90
22112;DHT22;11222;50.872;4.312;2023-07-16T11:57:20;26.60;99.90
22112;DHT22;11222;50.872;4.312;2023-07-16T11:59:46;27.50;99.90
22112;DHT22;11222;50.872;4.312;2023-07-16T12:02:12;27.10;99.90
22112;DHT22;11222;50.872;4.312;2023-07-16T12:04:37;25.90;99.90
22112;DHT22;11222;50.872;4.312;2023-07-16T12:07:03;24.90;99.90
22112;DHT22;11222;50.872;4.312;2023-07-16T12:09:29;24.50;99.90
22112;DHT22;11222;50.872;4.312;2023-07-16T12:11:55;24.10;99.90
22112;DHT22;11222;50.872;4.312;2023-07-16T12:14:21;23.90;99.90
22112;DHT22;11222;50.872;4.312;2023-07-16T12:16:47;23.80;99.90
22112;DHT22;11222;50.872;4.312;2023-07-16T12:19:12;23.70;99.90
22112;DHT22;11222;50.872;4.312;2023-07-16T12:21:38;23.60;99.90
22112;DHT22;11222;50.872;4.312;2023-07-16T12:24:04;23.30;99.90
22112;DHT22;11222;50.872;4.312;2023-07-16T12:26:30;23.00;99.90
22112;DHT22;11222;50.872;4.312;2023-07-16T12:28:56;22.60;99.90
22112;DHT22;11222;50.872;4.312;2023-07-16T12:31:22;22.20;99.90
22112;DHT22;11222;50.872;4.312;2023-07-16T12:33:48;21.70;99.90
22112;DHT22;11222;50.872;4.312;2023-07-16T12:36:14;21.40;99.90
22112;DHT22;11222;50.872;4.312;2023-07-16T12:38:41;21.50;99.90
22112;DHT22;11222;50.872;4.312;2023-07-16T12:41:07;21.90;99.90
22112;DHT22;11222;50.872;4.312;2023-07-16T12:43:32;22.20;99.90
22112;DHT22;11222;50.872;4.312;2023-07-16T12:46:03;22.60;99.90
22112;DHT22;11222;50.872;4.312;2023-07-16T12:48:30;22.80;99.90
22112;DHT22;11222;50.872;4.312;2023-07-16T12:50:56;23.00;99.90
22112;DHT22;11222;50.872;4.312;2023-07-16T12:53:22;23.10;99.90
22112;DHT22;11222;50.872;4.312;2023-07-16T12:55:48;23.30;99.90
22112;DHT22;11222;50.872;4.312;2023-07-16T12:58:14;23.70;99.90
22112;DHT22;11222;50.872;4.312;2023-07-16T13:00:40;23.80;99.90
22112;DHT22;11222;50.872;4.312;2023-07-16T13:03:06;23.50;99.90
22112;DHT22;11222;50.872;4.312;2023-07-16T13:05:34;23.60;99.90
22112;DHT22;11222;50.872;4.312;2023-07-16T13:07:59;23.60;99.90
22112;DHT22;11222;50.872;4.312;2023-07-16T13:10:25;23.60;99.90
22112;DHT22;11222;50.872;4.312;2023-07-16T13:12:50;23.90;99.90
22112;DHT22;11222;50.872;4.312;2023-07-16T13:15:16;24.00;99.90
22112;DHT22;11222;50.872;4.312;2023-07-16T13:17:42;24.00;99.90
22112;DHT22;11222;50.872;4.312;2023-07-16T13:20:08;23.80;99.90
22112;DHT22;11222;50.872;4.312;2023-07-16T13:22:35;23.50;99.90
22112;DHT22;11222;50.872;4.312;2023-07-16T13:25:01;23.20;99.90
22112;DHT22;11222;50.872;4.312;2023-07-16T13:27:28;23.20;99.90
22112;DHT22;11222;50.872;4.312;2023-07-16T13:29:53;22.60;99.90
22112;DHT22;11222;50.872;4.312;2023-07-16T13:32:19;22.20;99.90
22112;DHT22;11222;50.872;4.312;2023-07-16T13:34:45;22.00;99.90
22112;DHT22;11222;50.872;4.312;2023-07-16T13:37:10;21.90;99.90
22112;DHT22;11222;50.872;4.312;2023-07-16T13:39:36;22.10;99.90
22112;DHT22;11222;50.872;4.312;2023-07-16T13:42:02;22.30;99.90
22112;DHT22;11222;50.872;4.312;2023-07-16T13:44:28;22.50;99.90
22112;DHT22;11222;50.872;4.312;2023-07-16T13:46:53;22.50;99.90
22112;DHT22;11222;50.872;4.312;2023-07-16T13:49:19;22.60;99.90
22112;DHT22;11222;50.872;4.312;2023-07-16T13:51:45;22.40;99.90
22112;DHT22;11222;50.872;4.312;2023-07-16T13:54:11;22.40;99.90
22112;DHT22;11222;50.872;4.312;2023-07-16T13:56:37;22.60;99.90
22112;DHT22;11222;50.872;4.312;2023-07-16T13:59:03;22.70;99.90
22112;DHT22;11222;50.872;4.312;2023-07-16T14:01:29;22.70;99.90
22112;DHT22;11222;50.872;4.312;2023-07-16T14:03:55;23.00;99.90
22112;DHT22;11222;50.872;4.312;2023-07-16T14:06:21;23.20;99.90
22112;DHT22;11222;50.872;4.312;2023-07-16T14:08:47;23.20;99.90
22112;DHT22;11222;50.872;4.312;2023-07-16T14:11:12;23.40;99.90
22112;DHT22;11222;50.872;4.312;2023-07-16T14:13:38;23.40;99.90
22112;DHT22;11222;50.872;4.312;2023-07-16T14:16:04;23.20;99.90
22112;DHT22;11222;50.872;4.312;2023-07-16T14:18:33;23.10;99.90
22112;DHT22;11222;50.872;4.312;2023-07-16T14:20:58;23.10;99.90
22112;DHT22;11222;50.872;4.312;2023-07-16T14:23:25;23.20;99.90
22112;DHT22;11222;50.872;4.312;2023-07-16T14:25:51;23.20;99.90
22112;DHT22;11222;50.872;4.312;2023-07-16T14:28:16;23.60;99.90
22112;DHT22;11222;50.872;4.312;2023-07-16T14:30:42;23.60;99.90
22112;DHT22;11222;50.872;4.312;2023-07-16T14:33:07;23.40;99.90
22112;DHT22;11222;50.872;4.312;2023-07-16T14:35:34;23.30;99.90
22112;DHT22;11222;50.872;4.312;2023-07-16T14:38:00;23.30;99.90
22112;DHT22;11222;50.872;4.312;2023-07-16T14:40:25;23.30;99.90
22112;DHT22;11222;50.872;4.312;2023-07-16T14:42:51;23.20;99.90
22112;DHT22;11222;50.872;4.312;2023-07-16T14:45:17;23.50;99.90
22112;DHT22;11222;50.872;4.312;2023-07-16T14:47:43;23.40;99.90
22112;DHT22;11222;50.872;4.312;2023-07-16T14:50:09;23.50;99.90
22112;DHT22;11222;50.872;4.312;2023-07-16T14:52:35;23.40;99.90
22112;DHT22;11222;50.872;4.312;2023-07-16T14:55:02;23.50;99.90
22112;DHT22;11222;50.872;4.312;2023-07-16T14:57:30;23.40;99.90
22112;DHT22;11222;50.872;4.312;2023-07-16T14:59:55;23.20;99.90
22112;DHT22;11222;50.872;4.312;2023-07-16T15:02:21;23.10;99.90
22112;DHT22;11222;50.872;4.312;2023-07-16T15:04:47;23.30;99.90
22112;DHT22;11222;50.872;4.312;2023-07-16T15:07:13;23.40;99.90
22112;DHT22;11222;50.872;4.312;2023-07-16T15:09:38;23.40;99.90
22112;DHT22;11222;50.872;4.312;2023-07-16T15:12:06;23.70;99.90
22112;DHT22;11222;50.872;4.312;2023-07-16T15:14:31;23.80;99.90
22112;DHT22;11222;50.872;4.312;2023-07-16T15:16:58;23.90;99.90
22112;DHT22;11222;50.872;4.312;2023-07-16T15:19:24;23.70;99.90
22112;DHT22;11222;50.872;4.312;2023-07-16T15:21:49;23.70;99.90
22112;DHT22;11222;50.872;4.312;2023-07-16T15:24:15;23.70;99.90
22112;DHT22;11222;50.872;4.312;2023-07-16T15:26:41;23.60;99.90
22112;DHT22;11222;50.872;4.312;2023-07-16T15:29:07;23.60;99.90
22112;DHT22;11222;50.872;4.312;2023-07-16T15:31:33;23.70;99.90
22112;DHT22;11222;50.872;4.312;2023-07-16T15:33:59;23.70;99.90
22112;DHT22;11222;50.872;4.312;2023-07-16T15:36:25;23.60;99.90
22112;DHT22;11222;50.872;4.312;2023-07-16T15:38:52;23.40;99.90
22112;DHT22;11222;50.872;4.312;2023-07-16T15:41:19;23.40;99.90
22112;DHT22;11222;50.872;4.312;2023-07-16T15:43:46;23.40;99.90
22112;DHT22;11222;50.872;4.312;2023-07-16T15:46:15;23.30;99.90